Time;durP1;ratioP1;P1;durP2;ratioP2;P2;SDS_P1;SDS_P2;PMS_P1;PMS_P2;Temp;Humidity;BMP_temperature;BMP_pressure;BME280_temperature;BME280_humidity;BME280_pressure;Samples;Min_cycle;Max_cycle;Signal;HPM_P1;HPM_P2
2022/07/24 00:02:27;;;;;;;19.63;11.07;;;27.20;74.50;;;;;;6132663;28;84301;-65
2022/07/24 00:05:27;;;;;;;17.60;12.15;;;27.20;74.30;;;;;;6132565;28;83038;-65
2022/07/24 00:08:28;;;;;;;17.88;11.35;;;27.20;74.30;;;;;;6135987;28;83708;-65
2022/07/24 00:11:28;;;;;;;19.35;11.55;;;27.10;74.60;;;;;;6134610;28;84725;-65
2022/07/24 00:14:29;;;;;;;20.02;11.07;;;27.00;74.70;;;;;;6143335;28;83183;-65
2022/07/24 00:17:29;;;;;;;14.65;10.50;;;27.00;74.70;;;;;;6148948;28;83119;-66
2022/07/24 00:20:30;;;;;;;14.27;10.48;;;27.10;74.50;;;;;;6128842;28;83066;-66
2022/07/24 00:23:30;;;;;;;19.88;11.43;;;27.20;74.30;;;;;;6132169;28;82965;-65
2022/07/24 00:26:30;;;;;;;16.95;11.95;;;27.20;74.00;;;;;;6143545;28;83686;-65
2022/07/24 00:29:31;;;;;;;18.05;10.60;;;27.20;73.60;;;;;;6130305;28;86030;-65
2022/07/24 00:32:31;;;;;;;15.93;10.75;;;27.20;73.80;;;;;;6140107;28;83006;-65
2022/07/24 00:35:32;;;;;;;18.08;10.85;;;27.20;73.60;;;;;;6142497;28;83225;-65
2022/07/24 00:38:32;;;;;;;16.35;11.45;;;27.30;73.50;;;;;;6131848;28;83725;-65
2022/07/24 00:41:33;;;;;;;26.83;12.18;;;27.30;73.30;;;;;;6134095;28;86788;-66
2022/07/24 00:44:33;;;;;;;17.25;12.10;;;27.30;72.80;;;;;;6128711;28;84053;-66
2022/07/24 00:47:34;;;;;;;15.65;10.85;;;27.20;73.10;;;;;;6131611;28;83092;-65
2022/07/24 00:50:34;;;;;;;15.43;11.65;;;27.20;73.10;;;;;;6135692;28;82885;-65
2022/07/24 00:53:35;;;;;;;16.02;11.35;;;27.20;73.20;;;;;;6130291;28;85759;-65
2022/07/24 00:56:35;;;;;;;20.95;11.18;;;27.20;72.90;;;;;;6131651;28;83420;-65
2022/07/24 00:59:36;;;;;;;16.63;12.25;;;27.20;72.80;;;;;;6128432;28;83742;-64
2022/07/24 01:02:37;;;;;;;16.70;12.23;;;27.30;72.70;;;;;;6131542;28;82973;-64
2022/07/24 01:05:37;;;;;;;14.90;11.77;;;27.20;72.60;;;;;;6131547;28;83128;-64
2022/07/24 01:08:38;;;;;;;17.27;12.25;;;27.20;72.80;;;;;;6131359;28;83551;-64
2022/07/24 01:11:39;;;;;;;21.52;12.52;;;27.20;72.80;;;;;;6131296;28;84121;-64
2022/07/24 01:14:39;;;;;;;20.88;12.85;;;27.20;72.80;;;;;;6131598;28;83012;-64
2022/07/24 01:17:40;;;;;;;16.45;12.63;;;27.10;72.90;;;;;;6131509;28;83105;-64
2022/07/24 01:20:40;;;;;;;19.42;13.25;;;27.20;72.70;;;;;;6131177;28;83102;-65
2022/07/24 01:23:41;;;;;;;20.88;12.15;;;27.20;72.70;;;;;;6135278;28;83122;-65
2022/07/24 01:26:41;;;;;;;16.90;13.00;;;27.20;72.70;;;;;;6131474;28;83064;-66
2022/07/24 01:29:42;;;;;;;15.82;12.10;;;27.20;72.60;;;;;;6128654;28;84865;-65
2022/07/24 01:32:42;;;;;;;18.55;12.48;;;27.20;72.60;;;;;;6131192;28;83307;-66
2022/07/24 01:35:43;;;;;;;17.42;12.15;;;27.20;72.50;;;;;;6132238;28;83440;-65
2022/07/24 01:38:43;;;;;;;19.00;11.65;;;27.20;72.50;;;;;;6141195;28;84138;-66
2022/07/24 01:41:44;;;;;;;17.30;11.75;;;27.20;72.40;;;;;;6136117;28;83738;-65
2022/07/24 01:44:44;;;;;;;20.80;13.68;;;27.20;72.10;;;;;;6141629;28;82843;-65
2022/07/24 01:47:44;;;;;;;22.05;13.55;;;27.30;72.50;;;;;;6136440;28;84297;-65
2022/07/24 01:50:45;;;;;;;18.50;12.43;;;27.30;72.40;;;;;;6130867;28;83274;-65
2022/07/24 01:53:45;;;;;;;21.27;13.48;;;27.30;72.40;;;;;;6132706;28;83549;-65
2022/07/24 01:56:46;;;;;;;21.17;14.20;;;27.20;72.40;;;;;;6135045;28;83033;-65
2022/07/24 01:59:46;;;;;;;19.48;13.82;;;27.20;72.60;;;;;;6134689;28;82828;-65
2022/07/24 02:02:47;;;;;;;20.48;14.15;;;27.10;73.10;;;;;;6133462;28;83142;-65
2022/07/24 02:05:47;;;;;;;20.65;13.75;;;27.10;73.00;;;;;;6134786;28;82995;-64
2022/07/24 02:08:48;;;;;;;21.67;14.05;;;27.10;73.00;;;;;;6134682;28;82857;-64
2022/07/24 02:11:48;;;;;;;21.13;13.90;;;27.10;72.90;;;;;;6134584;28;83516;-64
2022/07/24 02:14:49;;;;;;;23.00;15.70;;;27.10;72.80;;;;;;6134790;28;83035;-65
2022/07/24 02:17:49;;;;;;;23.52;14.10;;;27.10;73.00;;;;;;6133004;28;83309;-65
2022/07/24 02:20:50;;;;;;;25.33;16.67;;;27.20;72.90;;;;;;6147632;28;84589;-64
2022/07/24 02:23:50;;;;;;;21.13;14.80;;;27.10;72.70;;;;;;6138609;28;83086;-64
2022/07/24 02:26:51;;;;;;;19.63;14.77;;;27.10;72.90;;;;;;6153121;28;83312;-65
2022/07/24 02:29:51;;;;;;;22.33;14.60;;;27.20;72.70;;;;;;6139179;28;82830;-65
2022/07/24 02:32:52;;;;;;;18.90;14.23;;;27.20;72.60;;;;;;6137083;28;83105;-65
2022/07/24 02:35:52;;;;;;;21.10;13.85;;;27.20;72.50;;;;;;6136754;28;84031;-65
2022/07/24 02:38:53;;;;;;;22.63;14.90;;;27.20;72.40;;;;;;6135995;28;83542;-64
2022/07/24 02:41:53;;;;;;;22.85;15.68;;;27.20;72.20;;;;;;6134204;28;82842;-64
2022/07/24 02:44:53;;;;;;;28.45;15.90;;;27.20;72.20;;;;;;6141462;28;83772;-65
2022/07/24 02:47:54;;;;;;;21.20;14.30;;;27.20;72.20;;;;;;6140789;28;84037;-66
2022/07/24 02:50:54;;;;;;;29.02;16.02;;;27.20;72.20;;;;;;6143182;28;83035;-65
2022/07/24 02:53:55;;;;;;;21.73;14.52;;;27.20;72.00;;;;;;6133637;28;84358;-64
2022/07/24 02:56:55;;;;;;;19.95;15.50;;;27.20;72.00;;;;;;6144623;28;83358;-64
2022/07/24 02:59:56;;;;;;;18.88;13.65;;;27.20;71.60;;;;;;6138360;28;83377;-64
2022/07/24 03:02:56;;;;;;;18.73;13.90;;;27.20;71.00;;;;;;6133385;28;82904;-65
2022/07/24 03:05:57;;;;;;;19.20;13.77;;;27.20;70.80;;;;;;6133006;28;83126;-64
2022/07/24 03:08:57;;;;;;;17.33;13.55;;;27.20;70.70;;;;;;6133621;28;83393;-65
2022/07/24 03:11:58;;;;;;;16.10;12.65;;;27.20;70.60;;;;;;6135637;28;83198;-66
2022/07/24 03:14:58;;;;;;;17.63;13.48;;;27.20;70.40;;;;;;6142395;28;84493;-67
2022/07/24 03:17:58;;;;;;;21.65;13.70;;;27.20;70.10;;;;;;6142195;28;83316;-66
2022/07/24 03:20:59;;;;;;;22.95;13.85;;;27.20;70.00;;;;;;6145131;28;83648;-66
2022/07/24 03:23:59;;;;;;;20.10;13.30;;;27.10;69.90;;;;;;6136133;28;84125;-66
2022/07/24 03:27:00;;;;;;;16.52;12.73;;;27.10;69.90;;;;;;6135614;28;84291;-66
2022/07/24 03:30:01;;;;;;;19.10;13.13;;;27.10;69.80;;;;;;6133274;28;82854;-66
2022/07/24 03:33:01;;;;;;;19.70;12.32;;;27.10;69.70;;;;;;6133249;28;83116;-67
2022/07/24 03:36:02;;;;;;;18.27;12.55;;;27.10;69.50;;;;;;6133383;28;84093;-67
2022/07/24 03:39:02;;;;;;;17.15;12.20;;;27.10;69.50;;;;;;6132967;28;83109;-67
2022/07/24 03:42:03;;;;;;;15.55;11.23;;;27.10;69.20;;;;;;6132514;28;84385;-66
2022/07/24 03:45:03;;;;;;;16.52;11.90;;;27.10;68.70;;;;;;6135442;28;83020;-67
2022/07/24 03:48:04;;;;;;;17.00;11.30;;;27.10;68.20;;;;;;6127976;28;83099;-71
2022/07/24 03:51:04;;;;;;;14.65;10.63;;;27.10;68.00;;;;;;6128289;28;83064;-70
2022/07/24 03:54:05;;;;;;;12.27;10.18;;;27.10;68.00;;;;;;6132636;28;84331;-70
2022/07/24 03:57:06;;;;;;;13.75;9.50;;;27.10;67.70;;;;;;6132770;28;83063;-69
2022/07/24 04:00:08;;;;;;;16.60;10.23;;;27.10;67.60;;;;;;6137474;28;82307;-67
2022/07/24 04:03:13;;;;;;;14.73;9.88;;;27.00;67.60;;;;;;6143612;28;82712;-68
2022/07/24 04:06:13;;;;;;;12.15;8.77;;;27.10;67.40;;;;;;6136156;28;82862;-67
2022/07/24 04:09:14;;;;;;;15.30;8.75;;;27.10;67.20;;;;;;6135974;28;80365;-68
2022/07/24 04:12:14;;;;;;;10.65;8.00;;;27.10;66.80;;;;;;6142465;28;80398;-67
2022/07/24 04:15:15;;;;;;;11.15;8.30;;;27.10;66.60;;;;;;6137629;28;80649;-68
2022/07/24 04:18:15;;;;;;;13.68;8.52;;;27.10;66.20;;;;;;6134550;28;80387;-69
2022/07/24 04:21:16;;;;;;;8.20;7.15;;;27.10;66.10;;;;;;6135602;28;81232;-67
2022/07/24 04:24:16;;;;;;;13.77;8.20;;;27.20;66.30;;;;;;6131562;28;81587;-68
2022/07/24 04:27:17;;;;;;;9.35;7.45;;;27.10;66.10;;;;;;6126544;28;80589;-68
2022/07/24 04:30:17;;;;;;;13.50;8.70;;;27.10;66.00;;;;;;6132043;28;80853;-68
2022/07/24 04:33:18;;;;;;;10.70;8.30;;;27.10;65.80;;;;;;6134103;28;83325;-69
2022/07/24 04:36:18;;;;;;;10.23;8.73;;;27.10;65.70;;;;;;6135162;28;80393;-69
2022/07/24 04:39:19;;;;;;;13.65;8.15;;;27.10;65.70;;;;;;6129757;28;80592;-69
2022/07/24 04:42:19;;;;;;;13.57;8.32;;;27.10;65.70;;;;;;6134668;28;80323;-69
2022/07/24 04:45:20;;;;;;;11.10;7.70;;;27.10;65.60;;;;;;6129989;28;81760;-68
2022/07/24 04:48:20;;;;;;;9.43;8.18;;;27.10;65.70;;;;;;6134106;28;80536;-68
2022/07/24 04:51:21;;;;;;;11.65;8.07;;;27.10;65.70;;;;;;6134988;28;88503;-69
2022/07/24 04:54:21;;;;;;;9.93;7.85;;;27.10;65.60;;;;;;6139320;28;84999;-70
2022/07/24 04:57:22;;;;;;;10.90;8.50;;;27.10;65.50;;;;;;6134751;28;80521;-74
2022/07/24 05:00:22;;;;;;;11.95;8.10;;;27.00;65.40;;;;;;6134438;28;81050;-65
2022/07/24 05:03:22;;;;;;;11.73;7.75;;;27.10;65.30;;;;;;6139405;28;81164;-67
2022/07/24 05:06:23;;;;;;;10.88;7.63;;;27.10;65.40;;;;;;6134121;28;81776;-65
2022/07/24 05:09:23;;;;;;;12.15;8.00;;;27.10;65.30;;;;;;6132189;28;80946;-66
2022/07/24 05:12:24;;;;;;;10.73;7.53;;;27.10;65.40;;;;;;6142564;28;80373;-64
2022/07/24 05:15:24;;;;;;;13.32;7.65;;;27.20;65.30;;;;;;6134367;28;80705;-65
2022/07/24 05:18:25;;;;;;;11.95;8.15;;;27.20;65.20;;;;;;6134314;28;80416;-65
2022/07/24 05:21:25;;;;;;;10.77;6.90;;;27.30;65.20;;;;;;6133855;28;80583;-66
2022/07/24 05:24:26;;;;;;;17.13;7.93;;;27.20;64.80;;;;;;6130291;28;80638;-66
2022/07/24 05:27:26;;;;;;;10.63;7.80;;;27.30;64.90;;;;;;6132163;28;80942;-74
2022/07/24 05:30:27;;;;;;;10.10;6.95;;;27.30;64.70;;;;;;6139438;28;80529;-65
2022/07/24 05:33:27;;;;;;;12.55;7.13;;;27.30;64.60;;;;;;6138116;28;81591;-65
2022/07/24 05:36:28;;;;;;;8.95;6.72;;;27.30;64.40;;;;;;6137298;28;80440;-64
2022/07/24 05:39:28;;;;;;;13.35;7.53;;;27.40;64.60;;;;;;6137296;28;80534;-64
2022/07/24 05:42:29;;;;;;;10.95;7.72;;;27.40;64.50;;;;;;6138019;28;80450;-64
2022/07/24 05:45:29;;;;;;;8.60;6.88;;;27.40;64.30;;;;;;6138064;28;80452;-64
2022/07/24 05:48:30;;;;;;;9.82;6.88;;;27.40;63.70;;;;;;6137570;28;80768;-63
2022/07/24 05:51:30;;;;;;;10.93;6.88;;;27.40;63.10;;;;;;6137410;28;80177;-66
2022/07/24 05:54:31;;;;;;;7.68;6.13;;;27.40;63.20;;;;;;6135204;28;80571;-64
2022/07/24 06:00:35;;;;;;;11.00;6.85;;;27.40;63.00;;;;;;6133532;28;81049;-71
2022/07/24 06:03:36;;;;;;;11.32;6.70;;;27.40;62.50;;;;;;6124504;28;80461;-63
2022/07/24 06:06:37;;;;;;;9.02;6.72;;;27.40;62.80;;;;;;6131307;28;80926;-63
2022/07/24 06:09:37;;;;;;;10.07;6.57;;;27.40;63.00;;;;;;6139957;28;83127;-63
2022/07/24 06:12:38;;;;;;;8.35;6.68;;;27.40;62.30;;;;;;6141976;28;80324;-63
2022/07/24 06:15:38;;;;;;;10.45;6.20;;;27.50;62.30;;;;;;6147264;28;80633;-62
2022/07/24 06:18:39;;;;;;;9.48;5.68;;;27.50;62.30;;;;;;6122614;28;80733;-62
2022/07/24 06:21:39;;;;;;;10.38;6.45;;;27.50;62.30;;;;;;6129309;28;80427;-64
2022/07/24 06:24:40;;;;;;;12.73;6.00;;;27.50;62.20;;;;;;6127307;28;80852;-64
2022/07/24 06:27:40;;;;;;;9.00;5.22;;;27.60;62.60;;;;;;6130189;28;80401;-64
2022/07/24 06:30:41;;;;;;;7.70;5.70;;;27.60;62.10;;;;;;6129541;28;81290;-64
2022/07/24 06:33:41;;;;;;;8.05;5.50;;;27.60;61.30;;;;;;6130595;28;80315;-64
2022/07/24 06:36:42;;;;;;;9.07;5.95;;;27.60;61.50;;;;;;6137809;28;81454;-64
2022/07/24 06:39:43;;;;;;;8.65;5.47;;;27.60;61.70;;;;;;6132892;28;80826;-63
2022/07/24 06:42:43;;;;;;;5.85;4.63;;;27.60;61.20;;;;;;6126593;28;81760;-63
2022/07/24 06:45:44;;;;;;;11.18;4.97;;;27.60;60.60;;;;;;6128064;28;80199;-64
2022/07/24 06:48:44;;;;;;;12.15;7.25;;;27.60;60.00;;;;;;6135448;28;80282;-67
2022/07/24 06:51:46;;;;;;;12.25;6.38;;;27.70;59.70;;;;;;6133568;28;80548;-63
2022/07/24 06:54:46;;;;;;;5.65;5.05;;;27.60;59.70;;;;;;6142506;28;81259;-64
2022/07/24 06:57:47;;;;;;;6.28;4.70;;;27.70;59.30;;;;;;6136297;28;81095;-64
2022/07/24 07:00:47;;;;;;;4.88;3.78;;;27.70;58.70;;;;;;6135608;28;80765;-63
2022/07/24 07:03:49;;;;;;;5.25;3.25;;;27.60;57.30;;;;;;6134619;28;80855;-64
2022/07/24 07:06:49;;;;;;;5.18;3.10;;;27.50;53.70;;;;;;6132396;28;80259;-63
2022/07/24 07:09:50;;;;;;;7.38;3.25;;;27.30;51.60;;;;;;6117087;28;81021;-63
2022/07/24 07:12:50;;;;;;;5.25;2.55;;;27.30;51.90;;;;;;6120390;28;81283;-64
2022/07/24 07:15:51;;;;;;;3.20;2.22;;;27.30;51.00;;;;;;6133116;28;80976;-63
2022/07/24 07:18:51;;;;;;;3.25;2.58;;;27.20;51.40;;;;;;6134734;28;80528;-64
2022/07/24 07:21:52;;;;;;;2.72;2.35;;;27.20;51.30;;;;;;6130654;28;80879;-64
2022/07/24 07:24:53;;;;;;;4.40;2.30;;;27.30;51.50;;;;;;6132983;28;80836;-64
2022/07/24 07:27:53;;;;;;;3.20;2.40;;;27.30;51.20;;;;;;6135326;28;80569;-64
2022/07/24 07:30:54;;;;;;;2.60;2.20;;;27.40;51.30;;;;;;6135547;28;80523;-76
2022/07/24 07:33:54;;;;;;;5.80;2.95;;;27.30;51.40;;;;;;6136293;28;80541;-72
2022/07/24 07:36:55;;;;;;;4.60;2.50;;;27.40;51.70;;;;;;6130327;28;80359;-71
2022/07/24 07:39:57;;;;;;;3.67;2.60;;;27.50;52.00;;;;;;6132917;28;80431;-74
2022/07/24 07:42:57;;;;;;;5.03;2.78;;;27.50;51.90;;;;;;6134172;28;81717;-75
2022/07/24 07:45:58;;;;;;;7.32;2.63;;;27.50;51.40;;;;;;6135341;28;80132;-79
2022/07/24 07:48:58;;;;;;;4.55;2.70;;;27.50;51.00;;;;;;6136491;28;80806;-74
2022/07/24 07:51:59;;;;;;;6.38;2.83;;;27.40;50.60;;;;;;6131695;28;80417;-76
2022/07/24 07:54:59;;;;;;;7.07;2.70;;;27.40;51.30;;;;;;6126165;28;80806;-73
2022/07/24 07:58:00;;;;;;;6.55;2.95;;;27.50;50.60;;;;;;6132890;28;81099;-70
2022/07/24 08:01:00;;;;;;;2.92;2.60;;;27.50;50.50;;;;;;6120976;28;80916;-76
2022/07/24 08:04:01;;;;;;;5.18;2.55;;;27.40;50.40;;;;;;6135723;28;81742;-74
2022/07/24 08:07:01;;;;;;;4.25;2.45;;;27.40;50.90;;;;;;6135523;28;80896;-80
2022/07/24 08:10:02;;;;;;;4.88;2.50;;;27.50;51.20;;;;;;6136129;28;81088;-65
2022/07/24 08:13:02;;;;;;;5.95;2.53;;;27.50;50.90;;;;;;6129077;28;80122;-75
2022/07/24 08:16:03;;;;;;;6.13;2.60;;;27.50;51.20;;;;;;6135506;28;80542;-64
2022/07/24 08:19:03;;;;;;;3.75;2.22;;;27.40;49.00;;;;;;6122749;28;81796;-66
2022/07/24 08:22:04;;;;;;;6.97;2.42;;;27.40;49.50;;;;;;6137935;28;80323;-66
2022/07/24 08:25:05;;;;;;;4.28;2.20;;;27.50;50.20;;;;;;6139956;28;81323;-66
2022/07/24 08:28:05;;;;;;;4.70;3.00;;;27.50;50.70;;;;;;6136105;28;80754;-64
2022/07/24 08:31:06;;;;;;;4.45;2.40;;;27.60;51.10;;;;;;6140643;28;80558;-66
2022/07/24 08:34:06;;;;;;;3.78;2.65;;;27.60;51.40;;;;;;6135349;28;80507;-65
2022/07/24 08:37:07;;;;;;;7.30;2.50;;;27.60;50.60;;;;;;6138655;28;80455;-66
2022/07/24 08:40:07;;;;;;;6.80;2.90;;;27.60;51.00;;;;;;6149587;28;80706;-65
2022/07/24 08:43:08;;;;;;;3.50;2.67;;;27.60;51.80;;;;;;6143383;28;81455;-65
2022/07/24 08:46:08;;;;;;;2.75;2.42;;;27.60;51.50;;;;;;6136420;28;81479;-66
2022/07/24 08:49:09;;;;;;;3.45;2.28;;;27.70;51.00;;;;;;6145380;28;81652;-64
2022/07/24 08:52:09;;;;;;;3.80;2.80;;;27.70;51.30;;;;;;6135294;28;80448;-64
2022/07/24 08:55:10;;;;;;;2.80;2.50;;;27.70;49.80;;;;;;6138400;28;81584;-65
2022/07/24 08:58:10;;;;;;;4.28;2.72;;;27.80;50.10;;;;;;6128754;28;80378;-66
2022/07/24 09:01:11;;;;;;;4.55;3.28;;;27.70;50.00;;;;;;6132422;28;81694;-64
2022/07/24 09:04:12;;;;;;;4.00;3.22;;;27.70;49.70;;;;;;6127115;28;81449;-64
2022/07/24 09:07:12;;;;;;;6.97;3.10;;;27.70;50.00;;;;;;6142585;28;81999;-65
2022/07/24 09:10:13;;;;;;;7.32;3.17;;;27.70;48.60;;;;;;6143570;28;80334;-64
2022/07/24 09:13:13;;;;;;;3.97;2.70;;;27.70;49.30;;;;;;6128382;28;80903;-65
2022/07/24 09:16:14;;;;;;;5.38;3.00;;;27.70;48.20;;;;;;6137374;28;82806;-66
2022/07/24 09:19:16;;;;;;;5.55;3.08;;;27.70;48.70;;;;;;6136279;28;80835;-64
2022/07/24 09:22:16;;;;;;;7.85;3.13;;;27.70;49.10;;;;;;6122723;28;80787;-64
2022/07/24 09:25:17;;;;;;;6.10;2.92;;;27.70;49.10;;;;;;6118751;28;80937;-64
2022/07/24 09:28:17;;;;;;;6.82;2.70;;;27.70;48.40;;;;;;6118561;28;80621;-65
2022/07/24 09:31:18;;;;;;;3.42;3.10;;;27.70;47.90;;;;;;6137952;28;80429;-67
2022/07/24 09:34:18;;;;;;;5.07;3.25;;;27.60;48.00;;;;;;6138691;28;80363;-65
2022/07/24 09:37:19;;;;;;;10.93;3.83;;;27.60;48.60;;;;;;6136963;28;81677;-67
2022/07/24 09:40:19;;;;;;;7.13;3.13;;;27.60;48.80;;;;;;6126961;28;81441;-67
2022/07/24 09:43:20;;;;;;;16.48;5.38;;;27.60;48.70;;;;;;6137285;28;80507;-67
2022/07/24 09:46:20;;;;;;;8.23;3.92;;;27.70;49.80;;;;;;6138311;28;80865;-67
2022/07/24 09:49:21;;;;;;;7.90;4.25;;;27.60;49.90;;;;;;6136314;28;80809;-67
2022/07/24 09:52:22;;;;;;;6.90;3.78;;;27.70;50.00;;;;;;6135562;28;80602;-65
2022/07/24 09:55:23;;;;;;;7.45;3.75;;;27.70;51.00;;;;;;6138489;28;80792;-68
2022/07/24 09:58:23;;;;;;;5.95;4.10;;;27.70;51.30;;;;;;6128439;28;80762;-67
2022/07/24 10:01:24;;;;;;;16.23;3.75;;;27.70;51.60;;;;;;6138381;28;81046;-67
2022/07/24 10:04:24;;;;;;;5.57;3.03;;;27.80;51.80;;;;;;6134862;28;80656;-69
2022/07/24 10:07:25;;;;;;;4.35;3.20;;;27.90;51.90;;;;;;6127870;28;80527;-71
2022/07/24 10:10:25;;;;;;;8.52;4.63;;;27.90;52.50;;;;;;6129903;28;80291;-72
2022/07/24 10:13:27;;;;;;;11.60;5.43;;;27.90;52.20;;;;;;6134790;28;80443;-74
2022/07/24 10:16:28;;;;;;;18.95;6.30;;;27.90;51.40;;;;;;6136077;28;87824;-80
2022/07/24 10:19:28;;;;;;;12.52;6.55;;;27.90;51.80;;;;;;6131514;28;81806;-66
2022/07/24 10:22:29;;;;;;;9.35;4.95;;;27.90;52.10;;;;;;6131112;28;80768;-67
2022/07/24 10:25:29;;;;;;;16.80;5.85;;;28.00;51.80;;;;;;6138807;28;81499;-70
2022/07/24 10:28:30;;;;;;;12.50;5.35;;;28.00;50.80;;;;;;6130162;28;80691;-70
2022/07/24 10:31:30;;;;;;;15.32;5.25;;;28.00;51.50;;;;;;6135838;28;81319;-69
2022/07/24 10:34:31;;;;;;;11.30;4.47;;;28.10;52.00;;;;;;6137615;28;80494;-67
2022/07/24 10:37:31;;;;;;;10.13;4.28;;;28.20;51.90;;;;;;6140266;28;80428;-73
2022/07/24 10:40:32;;;;;;;6.47;4.03;;;28.10;51.10;;;;;;6128823;28;80730;-70
2022/07/24 10:43:32;;;;;;;7.93;4.00;;;28.20;51.60;;;;;;6137021;28;80099;-69
2022/07/24 10:46:33;;;;;;;9.07;3.90;;;28.00;49.40;;;;;;6137698;28;87307;-69
2022/07/24 10:49:33;;;;;;;7.57;4.07;;;28.00;49.80;;;;;;6143933;28;80832;-69
2022/07/24 10:52:34;;;;;;;4.80;4.07;;;28.00;50.20;;;;;;6138024;28;80928;-68
2022/07/24 10:55:34;;;;;;;6.45;3.72;;;28.10;49.70;;;;;;6136736;28;80659;-69
2022/07/24 10:58:35;;;;;;;5.38;3.80;;;28.10;50.00;;;;;;6139850;28;80394;-68
2022/07/24 11:01:35;;;;;;;6.22;4.45;;;28.20;50.10;;;;;;6136753;28;81507;-69
2022/07/24 11:04:36;;;;;;;9.70;4.75;;;28.20;49.90;;;;;;6135742;28;81808;-69
2022/07/24 11:07:36;;;;;;;7.70;4.80;;;28.10;48.60;;;;;;6135858;28;80832;-65
2022/07/24 11:10:37;;;;;;;7.45;4.60;;;28.00;48.90;;;;;;6133987;28;80958;-65
2022/07/24 11:13:37;;;;;;;7.00;4.05;;;28.00;48.70;;;;;;6136363;28;80917;-75
2022/07/24 11:16:38;;;;;;;7.78;4.78;;;28.10;48.20;;;;;;6134369;28;80257;-67
2022/07/24 11:19:38;;;;;;;4.90;4.07;;;28.00;48.40;;;;;;6137024;28;80965;-67
2022/07/24 11:22:39;;;;;;;7.07;4.50;;;28.00;48.60;;;;;;6136764;28;80349;-70
2022/07/24 11:25:39;;;;;;;7.60;4.40;;;28.00;47.80;;;;;;6134868;28;80265;-67
2022/07/24 11:28:40;;;;;;;5.38;4.68;;;28.10;48.60;;;;;;6124876;28;81340;-68
2022/07/24 11:31:40;;;;;;;7.50;5.38;;;28.00;47.80;;;;;;6121374;28;82364;-69
2022/07/24 11:34:41;;;;;;;8.55;5.30;;;28.00;48.70;;;;;;6126478;28;80494;-72
2022/07/24 11:37:41;;;;;;;6.40;4.88;;;28.00;48.70;;;;;;6132905;28;82464;-68
2022/07/24 11:40:42;;;;;;;7.55;4.13;;;28.00;48.20;;;;;;6126207;28;80587;-69
2022/07/24 11:43:42;;;;;;;6.53;4.88;;;28.00;48.50;;;;;;6121116;28;80362;-68
2022/07/24 11:46:43;;;;;;;7.05;4.60;;;28.00;48.10;;;;;;6120469;28;80301;-69
2022/07/24 11:49:43;;;;;;;7.18;4.65;;;28.00;48.50;;;;;;6121249;28;80690;-68
2022/07/24 11:52:44;;;;;;;6.78;4.28;;;28.00;48.00;;;;;;6121838;28;80506;-68
2022/07/24 11:55:44;;;;;;;8.10;4.30;;;27.90;47.30;;;;;;6117105;28;80874;-67
2022/07/24 11:58:45;;;;;;;4.63;3.90;;;27.80;47.00;;;;;;6126067;28;80523;-68
2022/07/24 12:01:45;;;;;;;6.40;4.00;;;27.90;47.80;;;;;;6123355;28;81377;-69
2022/07/24 12:04:47;;;;;;;4.25;3.85;;;27.90;47.90;;;;;;6123576;28;80425;-68
2022/07/24 12:07:47;;;;;;;7.78;4.28;;;27.80;47.70;;;;;;6121255;28;80783;-68
2022/07/24 12:10:49;;;;;;;5.30;3.55;;;27.80;48.00;;;;;;6119866;28;80321;-68
2022/07/24 12:13:51;;;;;;;4.50;3.42;;;27.80;47.60;;;;;;6116994;28;80344;-69
2022/07/24 12:16:52;;;;;;;4.68;3.58;;;27.90;47.90;;;;;;6122960;28;80532;-68
2022/07/24 12:19:52;;;;;;;4.00;3.63;;;28.00;48.90;;;;;;6120146;28;80480;-68
2022/07/24 12:22:53;;;;;;;5.88;4.40;;;28.00;48.70;;;;;;6111916;28;81162;-67
2022/07/24 12:25:53;;;;;;;5.93;3.70;;;27.90;47.50;;;;;;6114119;28;87148;-68
2022/07/24 12:28:54;;;;;;;5.97;4.30;;;27.90;47.70;;;;;;6117823;28;80509;-69
2022/07/24 12:31:54;;;;;;;4.80;3.88;;;27.80;47.70;;;;;;6118794;28;81397;-67
2022/07/24 12:34:55;;;;;;;6.43;3.83;;;27.90;47.90;;;;;;6133120;28;81032;-68
2022/07/24 12:37:55;;;;;;;7.93;5.03;;;28.00;48.80;;;;;;6119115;28;80222;-67
2022/07/24 12:40:56;;;;;;;5.90;4.43;;;28.00;48.70;;;;;;6111405;28;80886;-66
2022/07/24 12:43:57;;;;;;;7.22;4.03;;;28.00;48.70;;;;;;6123295;28;80959;-67
2022/07/24 12:46:57;;;;;;;5.70;4.78;;;28.10;48.20;;;;;;6131385;28;81049;-66
2022/07/24 12:49:57;;;;;;;5.75;4.25;;;28.10;49.70;;;;;;6128183;28;80533;-66
2022/07/24 12:52:58;;;;;;;8.50;4.15;;;28.10;49.00;;;;;;6127513;28;81399;-65
2022/07/24 12:55:58;;;;;;;12.90;8.20;;;28.20;49.20;;;;;;6123222;28;81365;-67
2022/07/24 12:59:00;;;;;;;8.10;5.82;;;28.20;47.50;;;;;;6134119;28;80971;-65
2022/07/24 13:02:00;;;;;;;6.13;5.13;;;28.30;48.40;;;;;;6133020;28;80988;-67
2022/07/24 13:05:01;;;;;;;7.00;4.65;;;28.20;48.00;;;;;;6133543;28;80645;-65
2022/07/24 13:08:01;;;;;;;9.50;5.20;;;28.20;47.70;;;;;;6133832;28;80302;-65
2022/07/24 13:11:02;;;;;;;6.65;4.57;;;28.20;48.30;;;;;;6134716;28;80495;-65
2022/07/24 13:14:02;;;;;;;6.30;4.55;;;28.20;48.60;;;;;;6114397;28;81999;-64
2022/07/24 13:17:03;;;;;;;4.82;4.10;;;28.20;47.90;;;;;;6114294;28;80983;-65
2022/07/24 13:20:06;;;;;;;6.30;4.35;;;28.20;47.30;;;;;;6116764;28;82126;-65
2022/07/24 13:23:06;;;;;;;6.00;4.55;;;28.10;47.30;;;;;;6121310;28;81718;-66
2022/07/24 13:26:07;;;;;;;5.53;4.70;;;28.20;47.60;;;;;;6116644;28;81856;-65
2022/07/24 13:29:07;;;;;;;6.25;4.00;;;28.20;47.30;;;;;;6118851;28;81738;-65
2022/07/24 13:32:08;;;;;;;5.40;4.50;;;28.10;47.60;;;;;;6127150;28;80797;-65
2022/07/24 13:35:09;;;;;;;7.88;4.18;;;28.20;47.00;;;;;;6133372;28;80527;-66
2022/07/24 13:38:09;;;;;;;5.32;4.03;;;28.20;46.90;;;;;;6120496;28;87702;-67
2022/07/24 13:41:10;;;;;;;5.35;4.22;;;28.20;47.30;;;;;;6114680;28;80676;-66
2022/07/24 13:44:10;;;;;;;4.47;3.85;;;28.20;47.40;;;;;;6116757;28;80541;-66
2022/07/24 13:47:11;;;;;;;4.20;3.70;;;28.20;46.90;;;;;;6116439;28;81046;-66
2022/07/24 13:50:11;;;;;;;6.63;3.67;;;28.10;46.90;;;;;;6121265;28;80608;-66
2022/07/24 13:53:12;;;;;;;4.88;3.92;;;28.10;46.70;;;;;;6130364;28;80936;-66
2022/07/24 13:56:12;;;;;;;5.53;4.05;;;28.10;46.80;;;;;;6123333;28;81082;-66
2022/07/24 13:59:13;;;;;;;5.30;3.88;;;28.10;46.90;;;;;;6118473;28;80543;-65
2022/07/24 14:02:15;;;;;;;12.13;5.05;;;28.20;47.10;;;;;;6129751;28;80293;-66
2022/07/24 14:05:15;;;;;;;6.35;4.72;;;28.10;47.00;;;;;;6117535;28;81009;-65
2022/07/24 14:08:16;;;;;;;4.68;4.15;;;28.20;47.80;;;;;;6129570;28;80418;-64
2022/07/24 14:11:16;;;;;;;6.38;4.15;;;28.20;47.30;;;;;;6137839;28;80535;-65
2022/07/24 14:14:17;;;;;;;5.55;3.97;;;28.10;45.70;;;;;;6134693;28;80624;-65
2022/07/24 14:17:17;;;;;;;8.98;3.85;;;28.00;45.40;;;;;;6138089;28;80461;-65
2022/07/24 14:20:18;;;;;;;11.43;4.43;;;28.10;45.40;;;;;;6127170;28;80462;-78
2022/07/24 14:23:18;;;;;;;14.30;5.05;;;28.00;45.40;;;;;;6137207;28;80827;-74
2022/07/24 14:26:19;;;;;;;4.55;4.10;;;28.00;45.80;;;;;;6136746;28;80363;-65
2022/07/24 14:29:19;;;;;;;5.15;4.15;;;28.10;46.30;;;;;;6133995;28;80653;-65
2022/07/24 14:32:20;;;;;;;4.72;3.92;;;28.10;46.30;;;;;;6131391;28;80720;-66
2022/07/24 14:35:20;;;;;;;7.75;3.75;;;28.20;47.20;;;;;;6132062;28;80528;-65
2022/07/24 14:38:21;;;;;;;8.15;3.92;;;28.20;46.90;;;;;;6136530;28;80622;-65
2022/07/24 14:41:21;;;;;;;3.92;3.50;;;28.10;46.40;;;;;;6112272;28;80397;-64
2022/07/24 14:44:22;;;;;;;6.47;3.92;;;28.10;46.90;;;;;;6104952;28;80494;-64
2022/07/24 14:47:22;;;;;;;4.97;3.88;;;28.20;46.70;;;;;;6128919;28;80350;-64
2022/07/24 14:50:23;;;;;;;6.43;3.90;;;28.10;46.20;;;;;;6135570;28;80362;-64
2022/07/24 14:53:23;;;;;;;6.03;3.85;;;28.10;45.70;;;;;;6134692;28;80956;-64
2022/07/24 14:56:24;;;;;;;6.85;3.88;;;28.00;46.10;;;;;;6135169;28;80864;-65
2022/07/24 14:59:24;;;;;;;8.43;4.00;;;28.00;46.30;;;;;;6136622;28;81407;-76
2022/07/24 15:02:25;;;;;;;6.93;4.03;;;28.00;46.80;;;;;;6134983;28;80533;-78
2022/07/24 15:05:25;;;;;;;8.38;4.63;;;28.00;46.80;;;;;;6136031;28;80569;-70
2022/07/24 15:08:26;;;;;;;6.90;3.75;;;28.00;47.10;;;;;;6117674;28;80442;-73
2022/07/24 15:11:26;;;;;;;8.75;4.88;;;28.00;47.00;;;;;;6151813;28;83434;-68
2022/07/24 15:14:27;;;;;;;7.80;4.57;;;28.00;48.90;;;;;;6145251;28;80987;-67
2022/07/24 15:17:27;;;;;;;5.60;4.13;;;28.00;45.60;;;;;;6136810;28;80583;-68
2022/07/24 15:20:28;;;;;;;5.75;3.90;;;28.10;46.40;;;;;;6136453;28;80481;-66
2022/07/24 15:23:28;;;;;;;6.82;4.10;;;28.00;46.30;;;;;;6144532;28;81020;-65
2022/07/24 15:26:29;;;;;;;5.03;3.67;;;28.00;46.80;;;;;;6140192;28;80665;-69
2022/07/24 15:29:31;;;;;;;7.45;3.83;;;28.10;46.30;;;;;;6136081;28;80241;-65
2022/07/24 15:32:31;;;;;;;6.05;3.58;;;28.10;46.60;;;;;;6136109;28;80152;-66
2022/07/24 15:35:32;;;;;;;3.70;3.30;;;28.00;46.10;;;;;;6134989;28;80885;-65